Terminal Aerodrome Forecast
Issued by NWS

Home | Current Version | Previous Version | Text Only | Print | Product List | Glossary Off
Versions: 1 2 3 4 5 6 7 8 9 10 11 12 13 14 15 16 17 18 19 20 21 22 23 24 25 26 27 28 29 30 31 32 33 34 35 36 37

000
FTUS43 KLOT 262200 AAC
TAFDPA
TAF AMD
KDPA 262200Z 2622/2718 18006KT P6SM -SN SCT015 OVC040
      TEMPO 2622/2624 4SM -SN BR BKN012
     FM270000 15007KT 6SM -SN BR SCT010 OVC015
     FM270500 08004KT 6SM BR OVC008
     FM271000 03005KT P6SM OVC010
     FM271600 05007KT P6SM OVC015=

USA.gov is the U.S. government's official web portal to all federal, state and local government web resources and services.